createdAt,value
2022-09-22T00:00:40.846Z,0
2022-09-22T00:01:41.121Z,0
2022-09-22T00:02:40.804Z,0
2022-09-22T00:03:40.857Z,0
2022-09-22T00:04:40.842Z,0
2022-09-22T00:05:40.891Z,0
2022-09-22T00:06:40.612Z,0
2022-09-22T00:07:41.162Z,0
2022-09-22T00:08:41.168Z,0
2022-09-22T00:09:41.204Z,0
2022-09-22T00:10:40.690Z,0
2022-09-22T00:11:41.385Z,0
2022-09-22T00:12:40.727Z,0
2022-09-22T00:13:41.259Z,0
2022-09-22T00:14:41.273Z,0
2022-09-22T00:15:41.081Z,0
2022-09-22T00:16:41.490Z,0
2022-09-22T00:17:41.060Z,0
2022-09-22T00:18:40.847Z,0
2022-09-22T00:19:41.367Z,0
2022-09-22T00:20:41.125Z,0
2022-09-22T00:21:41.378Z,0
2022-09-22T00:22:41.429Z,0
2022-09-22T00:23:41.427Z,0
2022-09-22T00:24:41.192Z,0
2022-09-22T00:25:40.954Z,0
2022-09-22T00:26:40.974Z,0
2022-09-22T00:27:41.301Z,0
2022-09-22T00:28:41.269Z,0
2022-09-22T00:29:41.271Z,0
2022-09-22T00:30:41.305Z,0
2022-09-22T00:31:41.961Z,0
2022-09-22T00:32:41.322Z,0
2022-09-22T00:33:41.599Z,0
2022-09-22T00:34:41.368Z,0
2022-09-22T00:35:41.648Z,0
2022-09-22T00:36:41.417Z,0
2022-09-22T00:37:41.438Z,0
2022-09-22T00:38:41.450Z,0
2022-09-22T00:39:41.720Z,0
2022-09-22T00:40:42.014Z,0
2022-09-22T00:41:41.760Z,0
2022-09-22T00:42:41.498Z,0
2022-09-22T00:43:41.573Z,0
2022-09-22T00:44:41.293Z,0
2022-09-22T00:45:41.558Z,0
2022-09-22T00:46:41.566Z,0
2022-09-22T00:47:41.880Z,0
2022-09-22T00:48:41.869Z,0
2022-09-22T00:49:41.370Z,0
2022-09-22T00:50:41.651Z,0
2022-09-22T00:51:41.160Z,0
2022-09-22T00:52:41.431Z,0
2022-09-22T00:53:41.720Z,0
2022-09-22T00:54:41.447Z,0
2022-09-22T00:55:41.722Z,0
2022-09-22T00:56:41.757Z,0
2022-09-22T00:57:41.505Z,0
2022-09-22T00:58:41.530Z,0
2022-09-22T00:59:41.867Z,0
2022-09-22T01:00:42.090Z,0
2022-09-22T01:01:41.903Z,0
2022-09-22T01:02:41.591Z,0
2022-09-22T01:03:41.894Z,0
2022-09-22T01:04:42.149Z,0
2022-09-22T01:05:41.898Z,0
2022-09-22T01:06:41.415Z,0
2022-09-22T01:07:41.680Z,0
2022-09-22T01:08:41.963Z,0
2022-09-22T01:09:42.283Z,0
2022-09-22T01:10:42.252Z,0
2022-09-22T01:11:42.258Z,0
2022-09-22T01:12:42.022Z,0
2022-09-22T01:13:42.042Z,0
2022-09-22T01:14:41.799Z,0
2022-09-22T01:15:42.714Z,0
2022-09-22T01:16:42.103Z,0
2022-09-22T01:17:42.123Z,0
2022-09-22T01:18:42.391Z,0
2022-09-22T01:19:41.914Z,0
2022-09-22T01:20:42.425Z,0
2022-09-22T01:21:42.692Z,0
2022-09-22T01:22:42.245Z,0
2022-09-22T01:23:42.475Z,0
2022-09-22T01:24:42.235Z,0
2022-09-22T01:25:42.272Z,0
2022-09-22T01:26:42.525Z,0
2022-09-22T01:27:42.300Z,0
2022-09-22T01:28:42.304Z,0
2022-09-22T01:29:42.325Z,0
2022-09-22T01:30:42.337Z,0
2022-09-22T01:31:42.955Z,0
2022-09-22T01:32:41.863Z,0
2022-09-22T01:33:42.400Z,0
2022-09-22T01:34:42.153Z,0
2022-09-22T01:35:42.728Z,0
2022-09-22T01:36:42.196Z,0
2022-09-22T01:37:42.462Z,0
2022-09-22T01:38:42.746Z,0
2022-09-22T01:39:42.761Z,0
2022-09-22T01:40:43.241Z,0
2022-09-22T01:41:42.831Z,0
2022-09-22T01:42:42.288Z,0
2022-09-22T01:43:42.331Z,0
2022-09-22T01:44:42.845Z,0
2022-09-22T01:45:42.351Z,0
2022-09-22T01:46:43.285Z,0
2022-09-22T01:47:42.677Z,0
2022-09-22T01:48:42.395Z,0
2022-09-22T01:49:42.927Z,0
2022-09-22T01:50:42.933Z,0
2022-09-22T01:51:42.737Z,0
2022-09-22T01:52:42.992Z,0
2022-09-22T01:53:42.992Z,0
2022-09-22T01:54:42.754Z,0
2022-09-22T01:55:43.039Z,0
2022-09-22T01:56:42.534Z,0
2022-09-22T01:57:43.101Z,0
2022-09-22T01:58:42.838Z,0
2022-09-22T01:59:42.847Z,0
2022-09-22T02:00:42.859Z,0
2022-09-22T02:01:43.209Z,0
2022-09-22T02:02:43.549Z,0
2022-09-22T02:03:43.223Z,0
2022-09-22T02:04:42.928Z,0
2022-09-22T02:05:42.948Z,0
2022-09-22T02:06:42.966Z,0
2022-09-22T02:07:43.013Z,0
2022-09-22T02:08:43.000Z,0
2022-09-22T02:09:43.271Z,0
2022-09-22T02:10:42.779Z,0
2022-09-22T02:11:43.043Z,0
2022-09-22T02:12:42.806Z,0
2022-09-22T02:13:43.108Z,0
2022-09-22T02:14:42.852Z,0
2022-09-22T02:15:43.560Z,0
2022-09-22T02:16:43.399Z,0
2022-09-22T02:17:43.160Z,0
2022-09-22T02:18:42.922Z,0
2022-09-22T02:19:43.269Z,0
2022-09-22T02:20:43.468Z,0
2022-09-22T02:21:43.882Z,0
2022-09-22T02:22:43.241Z,0
2022-09-22T02:23:43.288Z,0
2022-09-22T02:24:43.310Z,0
2022-09-22T02:25:43.301Z,0
2022-09-22T02:26:43.061Z,0
2022-09-22T02:27:43.349Z,0
2022-09-22T02:28:43.347Z,0
2022-09-22T02:29:43.121Z,0
2022-09-22T02:30:54.373Z,0
2022-09-22T02:31:43.707Z,0
2022-09-22T02:32:43.423Z,0
2022-09-22T02:33:45.379Z,0
2022-09-22T02:34:43.197Z,0
2022-09-22T02:35:43.767Z,0
2022-09-22T02:36:43.245Z,0
2022-09-22T02:37:43.503Z,0
2022-09-22T02:38:43.783Z,0
2022-09-22T02:39:43.585Z,0
2022-09-22T02:40:43.881Z,0
2022-09-22T02:41:43.827Z,0
2022-09-22T02:42:43.579Z,0
2022-09-22T02:43:43.606Z,0
2022-09-22T02:44:43.348Z,0
2022-09-22T02:45:43.909Z,0
2022-09-22T02:46:44.007Z,0
2022-09-22T02:47:43.673Z,0
2022-09-22T02:48:43.953Z,0
2022-09-22T02:49:43.706Z,0
2022-09-22T02:50:43.725Z,0
2022-09-22T02:51:44.050Z,0
2022-09-22T02:52:43.250Z,0
2022-09-22T02:53:44.037Z,0
2022-09-22T02:54:44.071Z,0
2022-09-22T02:55:44.094Z,0
2022-09-22T02:56:44.189Z,0
2022-09-22T02:57:44.103Z,0
2022-09-22T02:58:43.609Z,0
2022-09-22T02:59:44.138Z,0
2022-09-22T03:00:43.759Z,0
2022-09-22T03:01:44.349Z,0
2022-09-22T03:02:44.186Z,0
2022-09-22T03:03:43.947Z,0
2022-09-22T03:04:44.480Z,0
2022-09-22T03:05:43.748Z,0
2022-09-22T03:06:43.740Z,0
2022-09-22T03:07:44.327Z,0
2022-09-22T03:08:44.030Z,0
2022-09-22T03:09:44.050Z,0
2022-09-22T03:10:44.069Z,0
2022-09-22T03:11:44.381Z,0
2022-09-22T03:13:31.185Z,0
2022-09-22T03:13:44.388Z,0
2022-09-22T03:14:44.139Z,0
2022-09-22T03:15:44.415Z,0
2022-09-22T03:16:44.166Z,0
2022-09-22T03:17:43.965Z,0
2022-09-22T03:18:44.203Z,0
2022-09-22T03:19:44.486Z,0
2022-09-22T03:20:43.983Z,0
2022-09-22T03:21:44.044Z,0
2022-09-22T03:22:44.520Z,0
2022-09-22T03:23:44.603Z,0
2022-09-22T03:24:44.044Z,0
2022-09-22T03:25:44.575Z,0
2022-09-22T03:26:44.655Z,0
2022-09-22T03:27:44.396Z,0
2022-09-22T03:28:44.701Z,0
2022-09-22T03:29:44.649Z,0
2022-09-22T03:30:44.358Z,0
2022-09-22T03:31:44.182Z,0
2022-09-22T03:32:44.655Z,0
2022-09-22T03:33:46.415Z,0
2022-09-22T03:34:44.729Z,0
2022-09-22T03:35:44.488Z,0
2022-09-22T03:36:44.513Z,0
2022-09-22T03:37:44.273Z,0
2022-09-22T03:38:44.531Z,0
2022-09-22T03:39:44.617Z,0
2022-09-22T03:40:44.692Z,0
2022-09-22T03:41:44.603Z,0
2022-09-22T03:42:44.088Z,0
2022-09-22T03:43:44.925Z,0
2022-09-22T03:44:44.137Z,0
2022-09-22T03:45:44.740Z,0
2022-09-22T03:46:44.680Z,0
2022-09-22T03:47:44.699Z,0
2022-09-22T03:48:50.111Z,0
2022-09-22T03:49:44.734Z,0
2022-09-22T03:50:44.762Z,0
2022-09-22T03:51:44.770Z,0
2022-09-22T03:52:44.885Z,0
2022-09-22T03:53:44.800Z,0
2022-09-22T03:54:44.817Z,0
2022-09-22T03:55:45.137Z,0
2022-09-22T03:56:45.131Z,0
2022-09-22T03:57:44.866Z,0
2022-09-22T03:58:44.381Z,0
2022-09-22T03:59:44.925Z,0
2022-09-22T04:00:44.934Z,0
2022-09-22T04:01:45.632Z,0
2022-09-22T04:02:45.238Z,0
2022-09-22T04:03:44.721Z,0
2022-09-22T04:04:45.010Z,0
2022-09-22T04:05:45.013Z,0
2022-09-22T04:06:45.033Z,0
2022-09-22T04:07:45.295Z,0
2022-09-22T04:08:45.319Z,0
2022-09-22T04:09:45.070Z,0
2022-09-22T04:10:45.360Z,0
2022-09-22T04:11:45.413Z,0
2022-09-22T04:12:45.381Z,0
2022-09-22T04:13:51.513Z,0
2022-09-22T04:14:45.157Z,0
2022-09-22T04:15:45.182Z,0
2022-09-22T04:16:45.544Z,0
2022-09-22T04:17:45.460Z,0
2022-09-22T04:18:44.976Z,0
2022-09-22T04:19:44.999Z,0
2022-09-22T04:20:45.492Z,0
2022-09-22T04:21:45.690Z,0
2022-09-22T04:22:45.285Z,0
2022-09-22T04:23:45.315Z,0
2022-09-22T04:24:45.584Z,0
2022-09-22T04:25:45.605Z,0
2022-09-22T04:27:31.262Z,0
2022-09-22T04:27:45.407Z,0
2022-09-22T04:28:45.400Z,0
2022-09-22T04:29:45.405Z,0
2022-09-22T04:30:45.660Z,0
2022-09-22T04:31:45.474Z,0
2022-09-22T04:32:45.727Z,0
2022-09-22T04:33:45.485Z,0
2022-09-22T04:34:45.257Z,0
2022-09-22T04:35:45.512Z,0
2022-09-22T04:36:45.558Z,0
2022-09-22T04:37:45.551Z,0
2022-09-22T04:38:45.303Z,0
2022-09-22T04:39:45.881Z,0
2022-09-22T04:40:45.678Z,0
2022-09-22T04:41:45.109Z,0
2022-09-22T04:42:45.919Z,0
2022-09-22T04:43:45.937Z,0
2022-09-22T04:44:45.407Z,0
2022-09-22T04:45:47.333Z,0
2022-09-22T04:46:45.960Z,0
2022-09-22T04:47:45.495Z,4
2022-09-22T04:48:45.741Z,0
2022-09-22T04:49:45.765Z,0
2022-09-22T04:50:51.462Z,4
2022-09-22T04:51:46.059Z,4
2022-09-22T04:52:45.840Z,4
2022-09-22T04:53:46.083Z,4
2022-09-22T04:54:46.104Z,4
2022-09-22T04:55:45.879Z,8
2022-09-22T04:56:45.618Z,8
2022-09-22T04:57:46.155Z,12
2022-09-22T04:58:45.959Z,12
2022-09-22T04:59:45.958Z,12
2022-09-22T05:00:46.203Z,12
2022-09-22T05:01:46.672Z,16
2022-09-22T05:02:45.872Z,16
2022-09-22T05:03:46.142Z,20
2022-09-22T05:04:46.014Z,24
2022-09-22T05:05:46.051Z,24
2022-09-22T05:06:46.057Z,28
2022-09-22T05:07:45.805Z,32
2022-09-22T05:08:46.111Z,36
2022-09-22T05:09:46.366Z,40
2022-09-22T05:10:46.106Z,40
2022-09-22T05:11:46.144Z,48
2022-09-22T05:12:46.409Z,52
2022-09-22T05:13:45.918Z,56
2022-09-22T05:14:46.462Z,64
2022-09-22T05:15:46.221Z,68
2022-09-22T05:16:46.838Z,72
2022-09-22T05:17:46.246Z,80
2022-09-22T05:18:46.517Z,80
2022-09-22T05:19:46.299Z,88
2022-09-22T05:20:46.540Z,96
2022-09-22T05:21:46.306Z,100
2022-09-22T05:22:46.888Z,108
2022-09-22T05:23:46.601Z,120
2022-09-22T05:24:46.472Z,124
2022-09-22T05:25:46.127Z,132
2022-09-22T05:26:46.375Z,148
2022-09-22T05:27:46.415Z,156
2022-09-22T05:28:46.434Z,164
2022-09-22T05:29:46.443Z,172
2022-09-22T05:30:46.893Z,176
2022-09-22T05:31:47.053Z,188
2022-09-22T05:32:46.495Z,204
2022-09-22T05:33:46.023Z,208
2022-09-22T05:34:46.785Z,220
2022-09-22T05:35:46.812Z,228
2022-09-22T05:36:46.049Z,240
2022-09-22T05:37:46.312Z,248
2022-09-22T05:38:46.591Z,256
2022-09-22T05:39:46.876Z,264
2022-09-22T05:40:46.708Z,276
2022-09-22T05:41:46.637Z,288
2022-09-22T05:42:46.662Z,296
2022-09-22T05:43:46.933Z,304
2022-09-22T05:44:46.958Z,312
2022-09-22T05:45:46.945Z,324
2022-09-22T05:46:47.044Z,332
2022-09-22T05:47:46.771Z,340
2022-09-22T05:48:46.509Z,344
2022-09-22T05:49:47.025Z,356
2022-09-22T05:50:47.044Z,364
2022-09-22T05:51:46.634Z,368
2022-09-22T05:52:46.857Z,380
2022-09-22T05:53:47.112Z,388
2022-09-22T05:54:46.874Z,396
2022-09-22T05:55:46.646Z,408
2022-09-22T05:56:46.924Z,412
2022-09-22T05:57:46.912Z,424
2022-09-22T05:58:46.939Z,428
2022-09-22T05:59:46.944Z,440
2022-09-22T06:00:47.647Z,448
2022-09-22T06:01:47.121Z,460
2022-09-22T06:02:47.168Z,468
2022-09-22T06:03:47.038Z,480
2022-09-22T06:04:50.470Z,492
2022-09-22T06:05:47.076Z,504
2022-09-22T06:06:46.807Z,516
2022-09-22T06:07:47.423Z,528
2022-09-22T06:08:54.026Z,536
2022-09-22T06:09:46.856Z,548
2022-09-22T06:10:47.189Z,556
2022-09-22T06:11:46.901Z,564
2022-09-22T06:12:47.454Z,572
2022-09-22T06:13:47.446Z,584
2022-09-22T06:14:47.222Z,596
2022-09-22T06:15:47.235Z,624
2022-09-22T06:16:47.842Z,780
2022-09-22T06:17:47.255Z,960
2022-09-22T06:18:47.552Z,996
2022-09-22T06:19:47.574Z,980
2022-09-22T06:20:47.306Z,884
2022-09-22T06:21:47.338Z,768
2022-09-22T06:22:47.592Z,752
2022-09-22T06:23:50.215Z,772
2022-09-22T06:24:47.625Z,788
2022-09-22T06:25:47.394Z,772
2022-09-22T06:26:47.407Z,780
2022-09-22T06:27:47.806Z,796
2022-09-22T06:28:47.536Z,756
2022-09-22T06:29:47.727Z,700
2022-09-22T06:30:47.243Z,688
2022-09-22T06:31:48.020Z,692
2022-09-22T06:32:47.769Z,696
2022-09-22T06:33:47.275Z,700
2022-09-22T06:34:47.365Z,700
2022-09-22T06:35:47.779Z,704
2022-09-22T06:36:47.836Z,708
2022-09-22T06:37:47.603Z,712
2022-09-22T06:38:47.666Z,716
2022-09-22T06:39:47.663Z,720
2022-09-22T06:40:48.056Z,724
2022-09-22T06:41:47.667Z,728
2022-09-22T06:42:47.424Z,732
2022-09-22T06:43:47.479Z,732
2022-09-22T06:44:48.007Z,736
2022-09-22T06:45:47.727Z,744
2022-09-22T06:46:47.793Z,744
2022-09-22T06:47:47.781Z,752
2022-09-22T06:48:47.785Z,756
2022-09-22T06:49:48.068Z,760
2022-09-22T06:50:48.586Z,768
2022-09-22T06:51:47.867Z,772
2022-09-22T06:52:47.847Z,792
2022-09-22T06:53:53.522Z,896
2022-09-22T06:54:49.848Z,980
2022-09-22T06:55:50.390Z,948
2022-09-22T06:56:48.174Z,900
2022-09-22T06:57:47.436Z,868
2022-09-22T06:59:15.839Z,828
2022-09-22T06:59:48.236Z,820
2022-09-22T07:00:48.797Z,816
2022-09-22T07:01:48.669Z,820
2022-09-22T07:02:48.041Z,824
2022-09-22T07:03:47.796Z,828
2022-09-22T07:04:48.315Z,828
2022-09-22T07:05:48.106Z,832
2022-09-22T07:06:48.401Z,836
2022-09-22T07:07:48.147Z,840
2022-09-22T07:08:47.883Z,840
2022-09-22T07:09:47.899Z,844
2022-09-22T07:10:47.666Z,848
2022-09-22T07:11:47.961Z,856
2022-09-22T07:12:48.206Z,860
2022-09-22T07:13:48.227Z,864
2022-09-22T07:14:48.260Z,872
2022-09-22T07:15:48.528Z,872
2022-09-22T07:16:48.354Z,880
2022-09-22T07:17:48.037Z,884
2022-09-22T07:18:48.570Z,896
2022-09-22T07:19:48.581Z,896
2022-09-22T07:20:48.080Z,900
2022-09-22T07:21:48.104Z,908
2022-09-22T07:22:48.673Z,912
2022-09-22T07:23:48.424Z,916
2022-09-22T07:24:48.414Z,916
2022-09-22T07:25:48.170Z,920
2022-09-22T07:26:48.456Z,920
2022-09-22T07:27:48.494Z,924
2022-09-22T07:28:48.230Z,920
2022-09-22T07:29:48.767Z,924
2022-09-22T07:30:48.782Z,924
2022-09-22T07:31:49.460Z,928
2022-09-22T07:32:48.860Z,940
2022-09-22T07:33:48.315Z,944
2022-09-22T07:34:48.626Z,948
2022-09-22T07:35:48.877Z,952
2022-09-22T07:36:48.627Z,944
2022-09-22T07:37:48.653Z,940
2022-09-22T07:38:48.952Z,936
2022-09-22T07:39:48.949Z,928
2022-09-22T07:40:48.960Z,928
2022-09-22T07:41:48.888Z,928
2022-09-22T07:42:48.732Z,924
2022-09-22T07:43:48.504Z,920
2022-09-22T07:44:51.621Z,912
2022-09-22T07:45:48.785Z,904
2022-09-22T07:46:49.092Z,892
2022-09-22T07:47:48.831Z,892
2022-09-22T07:48:49.129Z,896
2022-09-22T07:49:49.135Z,896
2022-09-22T07:50:48.873Z,896
2022-09-22T07:51:48.890Z,896
2022-09-22T07:52:48.910Z,896
2022-09-22T07:53:48.926Z,892
2022-09-22T07:54:48.964Z,892
2022-09-22T07:55:49.246Z,888
2022-09-22T07:56:48.987Z,876
2022-09-22T07:57:49.009Z,868
2022-09-22T07:58:49.281Z,864
2022-09-22T07:59:49.312Z,864
2022-09-22T08:00:49.023Z,864
2022-09-22T08:01:49.594Z,860
2022-09-22T08:02:49.348Z,864
2022-09-22T08:03:49.374Z,864
2022-09-22T08:04:49.192Z,864
2022-09-22T08:05:49.138Z,864
2022-09-22T08:06:49.158Z,864
2022-09-22T08:07:49.181Z,860
2022-09-22T08:08:48.686Z,864
2022-09-22T08:09:48.957Z,864
2022-09-22T08:10:49.511Z,860
2022-09-22T08:11:49.281Z,864
2022-09-22T08:12:49.006Z,860
2022-09-22T08:13:49.039Z,860
2022-09-22T08:14:49.056Z,864
2022-09-22T08:15:49.712Z,860
2022-09-22T08:16:49.352Z,864
2022-09-22T08:17:48.847Z,860
2022-09-22T08:18:49.375Z,864
2022-09-22T08:19:49.423Z,860
2022-09-22T08:20:51.978Z,864
2022-09-22T08:21:55.746Z,860
2022-09-22T08:22:49.446Z,860
2022-09-22T08:23:49.209Z,864
2022-09-22T08:24:49.740Z,860
2022-09-22T08:25:49.244Z,860
2022-09-22T08:26:55.175Z,860
2022-09-22T08:27:49.798Z,860
2022-09-22T08:28:49.556Z,860
2022-09-22T08:29:49.829Z,860
2022-09-22T08:30:49.849Z,860
2022-09-22T08:31:50.590Z,860
2022-09-22T08:32:49.885Z,860
2022-09-22T08:33:49.697Z,860
2022-09-22T08:34:49.927Z,860
2022-09-22T08:35:49.681Z,856
2022-09-22T08:36:49.820Z,860
2022-09-22T08:37:49.979Z,856
2022-09-22T08:38:49.733Z,856
2022-09-22T08:39:49.775Z,856
2022-09-22T08:40:50.025Z,860
2022-09-22T08:41:49.276Z,856
2022-09-22T08:42:50.100Z,856
2022-09-22T08:43:50.080Z,856
2022-09-22T08:44:49.894Z,856
2022-09-22T08:45:50.110Z,852
2022-09-22T08:46:50.534Z,856
2022-09-22T08:47:49.920Z,856
2022-09-22T08:48:49.905Z,852
2022-09-22T08:49:50.215Z,852
2022-09-22T08:50:50.220Z,852
2022-09-22T08:51:49.707Z,852
2022-09-22T08:52:50.266Z,852
2022-09-22T08:53:50.276Z,852
2022-09-22T08:54:49.507Z,848
2022-09-22T08:55:50.036Z,852
2022-09-22T08:56:50.061Z,852
2022-09-22T08:57:50.083Z,852
2022-09-22T08:58:50.153Z,848
2022-09-22T08:59:50.148Z,852
2022-09-22T09:00:50.388Z,848
2022-09-22T09:01:50.399Z,848
2022-09-22T09:02:50.458Z,848
2022-09-22T09:03:50.220Z,848
2022-09-22T09:04:50.215Z,852
2022-09-22T09:05:50.038Z,848
2022-09-22T09:06:50.249Z,848
2022-09-22T09:07:50.554Z,848
2022-09-22T09:08:50.313Z,848
2022-09-22T09:09:50.080Z,848
2022-09-22T09:10:50.713Z,848
2022-09-22T09:11:50.324Z,848
2022-09-22T09:12:50.357Z,848
2022-09-22T09:13:50.632Z,848
2022-09-22T09:14:50.717Z,852
2022-09-22T09:15:50.698Z,852
2022-09-22T09:16:50.420Z,848
2022-09-22T09:17:50.712Z,852
2022-09-22T09:18:50.450Z,852
2022-09-22T09:19:50.756Z,848
2022-09-22T09:20:50.484Z,852
2022-09-22T09:21:50.539Z,848
2022-09-22T09:22:54.523Z,848
2022-09-22T09:25:24.078Z,848
2022-09-22T09:25:35.447Z,848
2022-09-22T09:26:35.222Z,848
2022-09-22T09:27:35.516Z,848
2022-09-22T09:28:35.625Z,848
2022-09-22T09:29:35.290Z,852
2022-09-22T09:30:35.901Z,848
2022-09-22T09:31:35.086Z,848
2022-09-22T09:32:35.347Z,852
2022-09-22T09:33:35.381Z,848
2022-09-22T09:34:35.633Z,852
2022-09-22T09:35:39.525Z,852
2022-09-22T09:36:35.416Z,852
2022-09-22T09:37:35.887Z,856
2022-09-22T09:38:35.456Z,856
2022-09-22T09:39:35.722Z,852
2022-09-22T09:40:36.110Z,852
2022-09-22T09:41:35.760Z,848
2022-09-22T09:42:35.595Z,852
2022-09-22T09:43:35.546Z,852
2022-09-22T09:44:35.555Z,756
2022-09-22T09:45:35.584Z,804
2022-09-22T09:46:36.138Z,840
2022-09-22T09:47:35.119Z,840
2022-09-22T09:48:35.892Z,844
2022-09-22T09:49:35.651Z,844
2022-09-22T09:50:35.939Z,840
2022-09-22T09:51:41.709Z,840
2022-09-22T09:52:35.820Z,840
2022-09-22T09:53:40.974Z,840
2022-09-22T09:54:36.006Z,840
2022-09-22T09:55:35.525Z,840
2022-09-22T09:56:35.557Z,844
2022-09-22T09:57:35.790Z,844
2022-09-22T09:58:36.074Z,844
2022-09-22T09:59:35.839Z,844
2022-09-22T10:00:35.594Z,848
2022-09-22T10:01:36.042Z,844
2022-09-22T10:02:35.949Z,848
2022-09-22T10:03:36.144Z,852
2022-09-22T10:04:36.192Z,800
2022-09-22T10:05:35.799Z,628
2022-09-22T10:06:35.441Z,656
2022-09-22T10:07:36.002Z,628
2022-09-22T10:08:36.278Z,712
2022-09-22T10:09:35.767Z,616
2022-09-22T10:10:36.036Z,616
2022-09-22T10:11:35.857Z,672
2022-09-22T10:12:36.411Z,856
2022-09-22T10:13:36.089Z,856
2022-09-22T10:14:35.851Z,852
2022-09-22T10:15:36.647Z,840
2022-09-22T10:16:36.153Z,852
2022-09-22T10:17:36.165Z,856
2022-09-22T10:18:36.488Z,840
2022-09-22T10:19:36.205Z,744
2022-09-22T10:20:36.301Z,848
2022-09-22T10:21:36.495Z,852
2022-09-22T10:22:42.152Z,852
2022-09-22T10:23:36.301Z,856
2022-09-22T10:24:36.400Z,864
2022-09-22T10:25:36.308Z,868
2022-09-22T10:26:36.322Z,868
2022-09-22T10:27:36.628Z,768
2022-09-22T10:28:36.663Z,844
2022-09-22T10:29:36.403Z,864
2022-09-22T10:30:36.667Z,856
2022-09-22T10:31:36.567Z,860
2022-09-22T10:32:36.434Z,864
2022-09-22T10:33:39.404Z,868
2022-09-22T10:34:37.048Z,880
2022-09-22T10:35:36.497Z,900
2022-09-22T10:36:36.539Z,896
2022-09-22T10:37:36.479Z,948
2022-09-22T10:38:37.029Z,972
2022-09-22T10:39:36.914Z,984
2022-09-22T10:40:37.173Z,992
2022-09-22T10:41:36.607Z,1008
2022-09-22T10:42:36.628Z,1044
2022-09-22T10:43:36.379Z,1084
2022-09-22T10:44:55.843Z,1096
2022-09-22T10:45:36.703Z,1092
2022-09-22T10:46:36.991Z,1076
2022-09-22T10:47:36.725Z,1016
2022-09-22T10:48:36.760Z,832
2022-09-22T10:49:36.497Z,888
2022-09-22T10:50:37.094Z,940
2022-09-22T10:51:36.790Z,864
2022-09-22T10:52:37.081Z,888
2022-09-22T10:53:36.604Z,828
2022-09-22T10:54:36.835Z,924
2022-09-22T10:55:36.906Z,952
2022-09-22T10:56:36.874Z,960
2022-09-22T10:57:36.918Z,972
2022-09-22T10:58:36.910Z,992
2022-09-22T10:59:37.202Z,1020
2022-09-22T11:00:41.982Z,1100
2022-09-22T11:01:36.950Z,1176
2022-09-22T11:02:37.254Z,1248
2022-09-22T11:03:37.264Z,1260
2022-09-22T11:04:37.616Z,1240
2022-09-22T11:05:37.312Z,1208
2022-09-22T11:06:37.381Z,1208
2022-09-22T11:07:37.349Z,1256
2022-09-22T11:08:36.864Z,1392
2022-09-22T11:09:37.682Z,1556
2022-09-22T11:10:37.409Z,1672
2022-09-22T11:11:42.235Z,1784
2022-09-22T11:12:36.912Z,1940
2022-09-22T11:13:37.492Z,2088
2022-09-22T11:14:37.216Z,2180
2022-09-22T11:15:37.770Z,2160
2022-09-22T11:16:37.021Z,1964
2022-09-22T11:17:37.269Z,1844
2022-09-22T11:18:42.182Z,1780
2022-09-22T11:19:37.054Z,1712
2022-09-22T11:20:37.587Z,1648
2022-09-22T11:21:37.093Z,1704
2022-09-22T11:22:37.744Z,1792
2022-09-22T11:23:37.726Z,1904
2022-09-22T11:24:37.410Z,1968
2022-09-22T11:25:37.467Z,1944
2022-09-22T11:26:37.192Z,1920
2022-09-22T11:27:37.766Z,1860
2022-09-22T11:28:37.477Z,1888
2022-09-22T11:29:37.505Z,2028
2022-09-22T11:30:37.766Z,2000
2022-09-22T11:31:37.552Z,2188
2022-09-22T11:32:37.072Z,2264
2022-09-22T11:33:37.584Z,2256
2022-09-22T11:34:37.863Z,2224
2022-09-22T11:35:37.617Z,2248
2022-09-22T11:36:37.626Z,2308
2022-09-22T11:37:38.252Z,2384
2022-09-22T11:38:37.971Z,2444
2022-09-22T11:39:37.970Z,2460
2022-09-22T11:40:38.391Z,2444
2022-09-22T11:41:37.463Z,2428
2022-09-22T11:42:37.775Z,2420
2022-09-22T11:43:37.546Z,2400
2022-09-22T11:44:37.787Z,2428
2022-09-22T11:45:37.796Z,2424
2022-09-22T11:46:37.658Z,2640
2022-09-22T11:47:37.836Z,2792
2022-09-22T11:48:38.146Z,2836
2022-09-22T11:49:37.878Z,2892
2022-09-22T11:50:37.900Z,2884
2022-09-22T11:51:37.855Z,2940
2022-09-22T11:52:37.933Z,2996
2022-09-22T11:53:38.204Z,2960
2022-09-22T11:54:38.275Z,2920
2022-09-22T11:55:37.981Z,2724
2022-09-22T11:56:38.005Z,2716
2022-09-22T11:57:37.776Z,2580
2022-09-22T11:58:38.044Z,2424
2022-09-22T11:59:38.082Z,2388
2022-09-22T12:00:38.124Z,2376
2022-09-22T12:01:38.109Z,2616
2022-09-22T12:02:38.438Z,2920
2022-09-22T12:03:38.213Z,2908
2022-09-22T12:04:38.194Z,2844
2022-09-22T12:05:38.178Z,2924
2022-09-22T12:06:38.202Z,3056
2022-09-22T12:07:38.210Z,3220
2022-09-22T12:08:38.499Z,3252
2022-09-22T12:09:42.899Z,3224
2022-09-22T12:10:38.289Z,3244
2022-09-22T12:11:38.293Z,3276
2022-09-22T12:12:38.341Z,3268
2022-09-22T12:13:38.339Z,3288
2022-09-22T12:14:38.475Z,3392
2022-09-22T12:15:38.379Z,3512
2022-09-22T12:16:38.385Z,3564
2022-09-22T12:17:38.675Z,3544
2022-09-22T12:18:38.693Z,3440
2022-09-22T12:19:38.547Z,3584
2022-09-22T12:20:38.283Z,3576
2022-09-22T12:21:38.770Z,3436
2022-09-22T12:22:38.258Z,3232
2022-09-22T12:23:38.533Z,3100
2022-09-22T12:24:38.828Z,3024
2022-09-22T12:25:55.070Z,2452
2022-09-22T12:26:38.330Z,2216
2022-09-22T12:27:38.617Z,2092
2022-09-22T12:28:38.634Z,2176
2022-09-22T12:29:38.664Z,2316
2022-09-22T12:30:38.880Z,2352
2022-09-22T12:31:38.999Z,2428
2022-09-22T12:32:38.990Z,2512
2022-09-22T12:33:38.981Z,2644
2022-09-22T12:34:38.746Z,2676
2022-09-22T12:35:39.050Z,2688
2022-09-22T12:36:38.806Z,2624
2022-09-22T12:37:38.708Z,2540
2022-09-22T12:38:38.576Z,2536
2022-09-22T12:39:39.114Z,2520
2022-09-22T12:40:39.219Z,2472
2022-09-22T12:41:39.213Z,2452
2022-09-22T12:42:39.177Z,2428
2022-09-22T12:43:38.668Z,2452
2022-09-22T12:44:38.949Z,2440
2022-09-22T12:45:38.584Z,2548
2022-09-22T12:46:39.236Z,2488
2022-09-22T12:47:39.306Z,2752
2022-09-22T12:48:39.284Z,2988
2022-09-22T12:49:39.050Z,2884
2022-09-22T12:50:39.056Z,2860
2022-09-22T12:51:38.825Z,2948
2022-09-22T12:52:39.126Z,2896
2022-09-22T12:54:38.935Z,2812
2022-09-22T12:55:38.913Z,3256
2022-09-22T12:56:39.441Z,3196
2022-09-22T12:57:39.520Z,3168
2022-09-22T12:58:39.479Z,3204
2022-09-22T12:59:39.505Z,3204
2022-09-22T13:00:40.114Z,3144
2022-09-22T13:01:40.484Z,3096
2022-09-22T13:02:39.570Z,2948
2022-09-22T13:03:39.599Z,2824
2022-09-22T13:04:39.607Z,2776
2022-09-22T13:05:42.914Z,2736
2022-09-22T13:06:39.373Z,2660
2022-09-22T13:07:39.161Z,2520
2022-09-22T13:08:39.448Z,2348
2022-09-22T13:09:39.189Z,2180
2022-09-22T13:10:38.948Z,2052
2022-09-22T13:11:39.487Z,1540
2022-09-22T13:12:39.760Z,1388
2022-09-22T13:13:39.590Z,1572
2022-09-22T13:14:39.799Z,1220
2022-09-22T13:15:39.298Z,1128
2022-09-22T13:16:39.862Z,1068
2022-09-22T13:17:39.628Z,1044
2022-09-22T13:18:39.391Z,1132
2022-09-22T13:19:39.411Z,1264
2022-09-22T13:20:39.933Z,1356
2022-09-22T13:21:39.939Z,1456
2022-09-22T13:22:39.709Z,1608
2022-09-22T13:23:39.982Z,1792
2022-09-22T13:24:39.766Z,2056
2022-09-22T13:25:39.509Z,2180
2022-09-22T13:26:39.789Z,2324
2022-09-22T13:27:39.548Z,2200
2022-09-22T13:28:40.093Z,2068
2022-09-22T13:29:39.894Z,2020
2022-09-22T13:30:39.994Z,2048
2022-09-22T13:31:39.628Z,2076
2022-09-22T13:32:39.389Z,2084
2022-09-22T13:33:39.919Z,2088
2022-09-22T13:34:39.959Z,2152
2022-09-22T13:35:39.994Z,2308
2022-09-22T13:36:40.247Z,2312
2022-09-22T13:37:39.745Z,2232
2022-09-22T13:38:40.029Z,2152
2022-09-22T13:39:43.535Z,2100
2022-09-22T13:40:40.633Z,2036
2022-09-22T13:41:40.113Z,2016
2022-09-22T13:42:39.587Z,2212
2022-09-22T13:43:40.396Z,2884
2022-09-22T13:44:39.898Z,3184
2022-09-22T13:45:40.701Z,3588
2022-09-22T13:46:40.183Z,3796
2022-09-22T13:47:40.206Z,3900
2022-09-22T13:48:40.517Z,3892
2022-09-22T13:49:39.984Z,3204
2022-09-22T13:50:40.421Z,3744
2022-09-22T13:51:40.578Z,3572
2022-09-22T13:52:40.566Z,3248
2022-09-22T13:53:40.319Z,2620
2022-09-22T13:54:40.606Z,1912
2022-09-22T13:55:40.117Z,2380
2022-09-22T13:56:40.152Z,1812
2022-09-22T13:57:40.664Z,1800
2022-09-22T13:58:40.465Z,1576
2022-09-22T13:59:40.190Z,1864
2022-09-22T14:01:17.256Z,2184
2022-09-22T14:01:40.728Z,2144
2022-09-22T14:02:41.041Z,2812